« Back
NWS Peachtree City, Ga » Text Product » ATL Terminal Aerodrome Forecast


Printer-friendly Version
Current Version              Previous Versions:   1  2  3  4  5  6  7  8  9  

Terminal Aerodrome Forecast

600
FTUS42 KFFC 281133
TAFATL
TAF
KATL 281133Z 2812/2918 12005KT P6SM FEW005 BKN080
     FM281300 12005KT P6SM BKN020
     FM281500 16006KT P6SM VCSH BKN035
      TEMPO 2818/2822 3SM -TSRA BKN015CB
     FM282200 14006KT P6SM SCT040 BKN080
     FM290600 VRB03KT P6SM SCT015 BKN045
     FM291400 17007KT P6SM BKN040=

USA.gov is the U.S. government's official web portal to all federal, state and local government web resources and services.